sensor_id;sensor_type;location;lat;lon;timestamp;P1;durP1;ratioP1;P2;durP2;ratioP2
79149;SDS011;68563;45.644;13.782;2023-08-24T00:00:34;9.02;;;8.23;;
79149;SDS011;68563;45.644;13.782;2023-08-24T00:03:02;8.35;;;7.55;;
79149;SDS011;68563;45.644;13.782;2023-08-24T00:05:28;10.38;;;8.15;;
79149;SDS011;68563;45.644;13.782;2023-08-24T00:07:54;9.18;;;8.07;;
79149;SDS011;68563;45.644;13.782;2023-08-24T00:10:19;11.63;;;7.57;;
79149;SDS011;68563;45.644;13.782;2023-08-24T00:12:44;8.48;;;7.28;;
79149;SDS011;68563;45.644;13.782;2023-08-24T00:15:10;8.80;;;7.40;;
79149;SDS011;68563;45.644;13.782;2023-08-24T00:17:36;10.73;;;8.43;;
79149;SDS011;68563;45.644;13.782;2023-08-24T00:20:03;9.82;;;8.93;;
79149;SDS011;68563;45.644;13.782;2023-08-24T00:22:33;10.15;;;9.15;;
79149;SDS011;68563;45.644;13.782;2023-08-24T00:24:58;9.70;;;8.15;;
79149;SDS011;68563;45.644;13.782;2023-08-24T00:27:24;11.43;;;8.15;;
79149;SDS011;68563;45.644;13.782;2023-08-24T00:29:49;9.30;;;8.40;;
79149;SDS011;68563;45.644;13.782;2023-08-24T00:32:15;8.95;;;7.82;;
79149;SDS011;68563;45.644;13.782;2023-08-24T00:34:40;11.13;;;8.15;;
79149;SDS011;68563;45.644;13.782;2023-08-24T00:37:05;11.10;;;7.68;;
79149;SDS011;68563;45.644;13.782;2023-08-24T00:39:31;9.15;;;7.63;;
79149;SDS011;68563;45.644;13.782;2023-08-24T00:41:56;8.70;;;7.78;;
79149;SDS011;68563;45.644;13.782;2023-08-24T00:44:22;10.35;;;8.30;;
79149;SDS011;68563;45.644;13.782;2023-08-24T00:46:47;9.68;;;8.20;;
79149;SDS011;68563;45.644;13.782;2023-08-24T00:49:13;11.30;;;8.73;;
79149;SDS011;68563;45.644;13.782;2023-08-24T00:51:39;9.00;;;7.30;;
79149;SDS011;68563;45.644;13.782;2023-08-24T00:54:05;9.18;;;8.25;;
79149;SDS011;68563;45.644;13.782;2023-08-24T00:56:30;9.98;;;8.25;;
79149;SDS011;68563;45.644;13.782;2023-08-24T00:58:56;8.85;;;7.72;;
79149;SDS011;68563;45.644;13.782;2023-08-24T01:01:22;8.57;;;7.75;;
79149;SDS011;68563;45.644;13.782;2023-08-24T01:03:49;9.85;;;8.10;;
79149;SDS011;68563;45.644;13.782;2023-08-24T01:06:15;9.35;;;8.45;;
79149;SDS011;68563;45.644;13.782;2023-08-24T01:08:40;8.60;;;7.78;;
79149;SDS011;68563;45.644;13.782;2023-08-24T01:11:13;9.00;;;8.10;;
79149;SDS011;68563;45.644;13.782;2023-08-24T01:13:51;7.90;;;7.10;;
79149;SDS011;68563;45.644;13.782;2023-08-24T01:16:29;8.32;;;7.47;;
79149;SDS011;68563;45.644;13.782;2023-08-24T01:18:57;9.93;;;7.45;;
79149;SDS011;68563;45.644;13.782;2023-08-24T01:21:25;8.82;;;7.30;;
79149;SDS011;68563;45.644;13.782;2023-08-24T01:23:59;9.25;;;6.93;;
79149;SDS011;68563;45.644;13.782;2023-08-24T01:26:39;10.73;;;7.60;;
79149;SDS011;68563;45.644;13.782;2023-08-24T01:29:06;12.77;;;8.20;;
79149;SDS011;68563;45.644;13.782;2023-08-24T01:31:32;8.52;;;7.40;;
79149;SDS011;68563;45.644;13.782;2023-08-24T01:33:58;10.80;;;7.78;;
79149;SDS011;68563;45.644;13.782;2023-08-24T01:36:23;8.95;;;8.02;;
79149;SDS011;68563;45.644;13.782;2023-08-24T01:39:01;9.93;;;7.60;;
79149;SDS011;68563;45.644;13.782;2023-08-24T01:41:33;8.00;;;7.05;;
79149;SDS011;68563;45.644;13.782;2023-08-24T01:44:03;8.10;;;7.18;;
79149;SDS011;68563;45.644;13.782;2023-08-24T01:46:31;9.68;;;8.38;;
79149;SDS011;68563;45.644;13.782;2023-08-24T01:48:59;7.43;;;6.68;;
79149;SDS011;68563;45.644;13.782;2023-08-24T01:51:25;7.88;;;7.03;;
79149;SDS011;68563;45.644;13.782;2023-08-24T01:53:51;10.38;;;7.25;;
79149;SDS011;68563;45.644;13.782;2023-08-24T01:56:18;9.18;;;7.45;;
79149;SDS011;68563;45.644;13.782;2023-08-24T01:58:43;8.07;;;6.75;;
79149;SDS011;68563;45.644;13.782;2023-08-24T02:01:08;8.20;;;7.13;;
79149;SDS011;68563;45.644;13.782;2023-08-24T02:03:35;9.95;;;7.28;;
79149;SDS011;68563;45.644;13.782;2023-08-24T02:06:01;12.88;;;7.20;;
79149;SDS011;68563;45.644;13.782;2023-08-24T02:08:26;6.72;;;6.03;;
79149;SDS011;68563;45.644;13.782;2023-08-24T02:10:51;8.02;;;6.47;;
79149;SDS011;68563;45.644;13.782;2023-08-24T02:13:17;9.18;;;6.53;;
79149;SDS011;68563;45.644;13.782;2023-08-24T02:15:42;7.82;;;6.82;;
79149;SDS011;68563;45.644;13.782;2023-08-24T02:18:08;8.27;;;6.78;;
79149;SDS011;68563;45.644;13.782;2023-08-24T02:20:37;8.20;;;6.53;;
79149;SDS011;68563;45.644;13.782;2023-08-24T02:23:03;12.23;;;7.22;;
79149;SDS011;68563;45.644;13.782;2023-08-24T02:25:29;7.68;;;6.53;;
79149;SDS011;68563;45.644;13.782;2023-08-24T02:27:54;6.97;;;6.28;;
79149;SDS011;68563;45.644;13.782;2023-08-24T02:30:20;7.55;;;6.82;;
79149;SDS011;68563;45.644;13.782;2023-08-24T02:32:45;7.00;;;6.22;;
79149;SDS011;68563;45.644;13.782;2023-08-24T02:35:10;8.35;;;6.72;;
79149;SDS011;68563;45.644;13.782;2023-08-24T02:37:36;7.88;;;6.68;;
79149;SDS011;68563;45.644;13.782;2023-08-24T02:40:01;6.55;;;5.85;;
79149;SDS011;68563;45.644;13.782;2023-08-24T02:42:29;7.00;;;6.00;;
79149;SDS011;68563;45.644;13.782;2023-08-24T02:44:55;9.02;;;6.03;;
79149;SDS011;68563;45.644;13.782;2023-08-24T02:47:21;7.18;;;6.15;;
79149;SDS011;68563;45.644;13.782;2023-08-24T02:49:46;6.15;;;5.50;;
79149;SDS011;68563;45.644;13.782;2023-08-24T02:52:12;6.68;;;5.82;;
79149;SDS011;68563;45.644;13.782;2023-08-24T02:54:37;7.90;;;5.93;;
79149;SDS011;68563;45.644;13.782;2023-08-24T02:57:02;8.63;;;5.82;;
79149;SDS011;68563;45.644;13.782;2023-08-24T02:59:28;8.13;;;5.63;;
79149;SDS011;68563;45.644;13.782;2023-08-24T03:01:54;7.38;;;5.80;;
79149;SDS011;68563;45.644;13.782;2023-08-24T03:04:19;7.47;;;6.05;;
79149;SDS011;68563;45.644;13.782;2023-08-24T03:06:44;9.48;;;6.25;;
79149;SDS011;68563;45.644;13.782;2023-08-24T03:09:10;7.53;;;6.00;;
79149;SDS011;68563;45.644;13.782;2023-08-24T03:11:35;8.10;;;5.68;;
79149;SDS011;68563;45.644;13.782;2023-08-24T03:14:00;11.60;;;5.90;;
79149;SDS011;68563;45.644;13.782;2023-08-24T03:16:26;7.95;;;7.10;;
79149;SDS011;68563;45.644;13.782;2023-08-24T03:18:51;6.53;;;5.93;;
79149;SDS011;68563;45.644;13.782;2023-08-24T03:21:17;8.35;;;7.57;;
79149;SDS011;68563;45.644;13.782;2023-08-24T03:23:42;8.02;;;7.20;;
79149;SDS011;68563;45.644;13.782;2023-08-24T03:26:07;7.68;;;6.22;;
79149;SDS011;68563;45.644;13.782;2023-08-24T03:28:33;6.05;;;5.45;;
79149;SDS011;68563;45.644;13.782;2023-08-24T03:31:00;6.85;;;5.00;;
79149;SDS011;68563;45.644;13.782;2023-08-24T03:33:25;7.63;;;6.00;;
79149;SDS011;68563;45.644;13.782;2023-08-24T03:35:52;9.68;;;6.07;;
79149;SDS011;68563;45.644;13.782;2023-08-24T03:38:18;8.13;;;6.13;;
79149;SDS011;68563;45.644;13.782;2023-08-24T03:40:43;7.50;;;6.18;;
79149;SDS011;68563;45.644;13.782;2023-08-24T03:43:09;9.07;;;6.40;;
79149;SDS011;68563;45.644;13.782;2023-08-24T03:45:34;6.97;;;6.28;;
79149;SDS011;68563;45.644;13.782;2023-08-24T03:48:00;8.05;;;6.13;;
79149;SDS011;68563;45.644;13.782;2023-08-24T03:50:25;10.90;;;6.18;;
79149;SDS011;68563;45.644;13.782;2023-08-24T03:52:51;7.55;;;6.75;;
79149;SDS011;68563;45.644;13.782;2023-08-24T03:55:19;7.47;;;6.53;;
79149;SDS011;68563;45.644;13.782;2023-08-24T03:57:44;8.63;;;6.25;;
79149;SDS011;68563;45.644;13.782;2023-08-24T04:00:10;6.93;;;6.25;;
79149;SDS011;68563;45.644;13.782;2023-08-24T04:02:37;7.70;;;6.35;;
79149;SDS011;68563;45.644;13.782;2023-08-24T04:05:03;11.77;;;6.63;;
79149;SDS011;68563;45.644;13.782;2023-08-24T04:07:29;8.65;;;6.90;;
79149;SDS011;68563;45.644;13.782;2023-08-24T04:09:54;7.38;;;6.63;;
79149;SDS011;68563;45.644;13.782;2023-08-24T04:12:19;6.40;;;5.78;;
79149;SDS011;68563;45.644;13.782;2023-08-24T04:14:45;7.10;;;6.40;;
79149;SDS011;68563;45.644;13.782;2023-08-24T04:17:10;7.18;;;6.47;;
79149;SDS011;68563;45.644;13.782;2023-08-24T04:19:37;6.10;;;5.45;;
79149;SDS011;68563;45.644;13.782;2023-08-24T04:22:03;6.93;;;5.57;;
79149;SDS011;68563;45.644;13.782;2023-08-24T04:24:28;7.60;;;6.10;;
79149;SDS011;68563;45.644;13.782;2023-08-24T04:26:54;8.43;;;6.82;;
79149;SDS011;68563;45.644;13.782;2023-08-24T04:29:19;8.93;;;6.60;;
79149;SDS011;68563;45.644;13.782;2023-08-24T04:31:44;9.35;;;6.63;;
79149;SDS011;68563;45.644;13.782;2023-08-24T04:34:10;10.57;;;6.78;;
79149;SDS011;68563;45.644;13.782;2023-08-24T04:36:36;8.90;;;6.72;;
79149;SDS011;68563;45.644;13.782;2023-08-24T04:39:02;8.52;;;7.15;;
79149;SDS011;68563;45.644;13.782;2023-08-24T04:41:27;8.07;;;6.40;;
79149;SDS011;68563;45.644;13.782;2023-08-24T04:43:52;7.32;;;6.63;;
79149;SDS011;68563;45.644;13.782;2023-08-24T04:46:18;7.95;;;6.50;;
79149;SDS011;68563;45.644;13.782;2023-08-24T04:48:44;7.60;;;6.78;;
79149;SDS011;68563;45.644;13.782;2023-08-24T04:51:09;8.57;;;7.20;;
79149;SDS011;68563;45.644;13.782;2023-08-24T04:53:34;11.10;;;6.68;;
79149;SDS011;68563;45.644;13.782;2023-08-24T04:56:00;8.07;;;6.28;;
79149;SDS011;68563;45.644;13.782;2023-08-24T04:58:25;9.90;;;6.85;;
79149;SDS011;68563;45.644;13.782;2023-08-24T05:00:51;7.75;;;6.82;;
79149;SDS011;68563;45.644;13.782;2023-08-24T05:03:17;12.52;;;6.28;;
79149;SDS011;68563;45.644;13.782;2023-08-24T05:05:42;9.60;;;7.78;;
79149;SDS011;68563;45.644;13.782;2023-08-24T05:08:07;9.25;;;7.78;;
79149;SDS011;68563;45.644;13.782;2023-08-24T05:10:36;8.00;;;7.00;;
79149;SDS011;68563;45.644;13.782;2023-08-24T05:13:02;10.00;;;8.13;;
79149;SDS011;68563;45.644;13.782;2023-08-24T05:15:28;12.60;;;7.80;;
79149;SDS011;68563;45.644;13.782;2023-08-24T05:17:54;11.60;;;7.68;;
79149;SDS011;68563;45.644;13.782;2023-08-24T05:20:24;7.80;;;6.82;;
79149;SDS011;68563;45.644;13.782;2023-08-24T05:22:53;7.95;;;6.63;;
79149;SDS011;68563;45.644;13.782;2023-08-24T05:27:47;10.15;;;7.05;;
79149;SDS011;68563;45.644;13.782;2023-08-24T05:30:13;8.07;;;6.95;;
79149;SDS011;68563;45.644;13.782;2023-08-24T05:32:38;7.85;;;7.05;;
79149;SDS011;68563;45.644;13.782;2023-08-24T05:35:04;8.77;;;6.50;;
79149;SDS011;68563;45.644;13.782;2023-08-24T05:37:31;7.97;;;6.85;;
79149;SDS011;68563;45.644;13.782;2023-08-24T05:39:57;7.35;;;6.65;;
79149;SDS011;68563;45.644;13.782;2023-08-24T05:42:22;7.70;;;6.55;;
79149;SDS011;68563;45.644;13.782;2023-08-24T05:44:47;13.50;;;7.20;;
79149;SDS011;68563;45.644;13.782;2023-08-24T05:47:13;11.25;;;7.13;;
79149;SDS011;68563;45.644;13.782;2023-08-24T05:49:38;10.43;;;6.60;;
79149;SDS011;68563;45.644;13.782;2023-08-24T05:52:03;11.55;;;7.70;;
79149;SDS011;68563;45.644;13.782;2023-08-24T05:54:29;12.95;;;6.38;;
79149;SDS011;68563;45.644;13.782;2023-08-24T05:56:55;13.48;;;7.28;;
79149;SDS011;68563;45.644;13.782;2023-08-24T05:59:20;12.23;;;6.70;;
79149;SDS011;68563;45.644;13.782;2023-08-24T06:01:46;10.30;;;7.03;;
79149;SDS011;68563;45.644;13.782;2023-08-24T06:04:11;15.23;;;6.82;;
79149;SDS011;68563;45.644;13.782;2023-08-24T06:06:36;15.18;;;6.88;;
79149;SDS011;68563;45.644;13.782;2023-08-24T06:09:03;12.63;;;7.05;;
79149;SDS011;68563;45.644;13.782;2023-08-24T06:11:32;10.05;;;6.68;;
79149;SDS011;68563;45.644;13.782;2023-08-24T06:13:58;12.07;;;7.03;;
79149;SDS011;68563;45.644;13.782;2023-08-24T06:16:23;14.05;;;7.40;;
79149;SDS011;68563;45.644;13.782;2023-08-24T06:18:49;8.45;;;6.10;;
79149;SDS011;68563;45.644;13.782;2023-08-24T06:21:15;6.82;;;6.13;;
79149;SDS011;68563;45.644;13.782;2023-08-24T06:23:41;7.72;;;6.07;;
79149;SDS011;68563;45.644;13.782;2023-08-24T06:26:06;8.38;;;6.05;;
79149;SDS011;68563;45.644;13.782;2023-08-24T06:28:32;8.05;;;6.47;;
79149;SDS011;68563;45.644;13.782;2023-08-24T06:30:57;8.52;;;6.20;;
79149;SDS011;68563;45.644;13.782;2023-08-24T06:33:28;8.25;;;7.13;;
79149;SDS011;68563;45.644;13.782;2023-08-24T06:35:55;7.65;;;6.63;;
79149;SDS011;68563;45.644;13.782;2023-08-24T06:38:21;7.18;;;6.43;;
79149;SDS011;68563;45.644;13.782;2023-08-24T06:40:46;6.93;;;6.15;;
79149;SDS011;68563;45.644;13.782;2023-08-24T06:43:12;8.80;;;6.82;;
79149;SDS011;68563;45.644;13.782;2023-08-24T06:45:37;8.90;;;6.53;;
79149;SDS011;68563;45.644;13.782;2023-08-24T06:48:03;11.60;;;6.70;;
79149;SDS011;68563;45.644;13.782;2023-08-24T06:50:28;7.55;;;6.35;;
79149;SDS011;68563;45.644;13.782;2023-08-24T06:52:54;7.13;;;6.00;;
79149;SDS011;68563;45.644;13.782;2023-08-24T06:55:19;8.38;;;6.10;;
79149;SDS011;68563;45.644;13.782;2023-08-24T06:57:47;8.48;;;6.53;;
79149;SDS011;68563;45.644;13.782;2023-08-24T07:02:40;8.00;;;5.97;;
79149;SDS011;68563;45.644;13.782;2023-08-24T07:05:05;7.25;;;6.40;;
79149;SDS011;68563;45.644;13.782;2023-08-24T07:07:33;9.95;;;6.57;;
79149;SDS011;68563;45.644;13.782;2023-08-24T07:09:59;8.25;;;6.97;;
79149;SDS011;68563;45.644;13.782;2023-08-24T07:12:24;11.52;;;7.05;;
79149;SDS011;68563;45.644;13.782;2023-08-24T07:14:49;7.85;;;6.40;;
79149;SDS011;68563;45.644;13.782;2023-08-24T07:17:15;8.00;;;6.72;;
79149;SDS011;68563;45.644;13.782;2023-08-24T07:19:40;7.03;;;5.90;;
79149;SDS011;68563;45.644;13.782;2023-08-24T07:22:05;7.97;;;6.13;;
79149;SDS011;68563;45.644;13.782;2023-08-24T07:24:31;9.75;;;6.65;;
79149;SDS011;68563;45.644;13.782;2023-08-24T07:26:58;10.10;;;6.53;;
79149;SDS011;68563;45.644;13.782;2023-08-24T07:29:23;8.18;;;6.63;;
79149;SDS011;68563;45.644;13.782;2023-08-24T07:31:49;6.85;;;5.97;;
79149;SDS011;68563;45.644;13.782;2023-08-24T07:34:14;8.85;;;6.35;;
79149;SDS011;68563;45.644;13.782;2023-08-24T07:36:40;7.85;;;6.10;;
79149;SDS011;68563;45.644;13.782;2023-08-24T07:39:07;22.50;;;7.00;;
79149;SDS011;68563;45.644;13.782;2023-08-24T07:41:33;18.95;;;6.50;;
79149;SDS011;68563;45.644;13.782;2023-08-24T07:43:58;14.75;;;5.68;;
79149;SDS011;68563;45.644;13.782;2023-08-24T07:46:23;7.50;;;5.47;;
79149;SDS011;68563;45.644;13.782;2023-08-24T07:48:49;8.65;;;5.43;;
79149;SDS011;68563;45.644;13.782;2023-08-24T07:51:15;7.28;;;5.00;;
79149;SDS011;68563;45.644;13.782;2023-08-24T07:53:40;7.90;;;5.18;;
79149;SDS011;68563;45.644;13.782;2023-08-24T07:56:06;7.32;;;4.57;;
79149;SDS011;68563;45.644;13.782;2023-08-24T07:58:31;15.23;;;6.22;;
79149;SDS011;68563;45.644;13.782;2023-08-24T08:00:57;10.93;;;6.05;;
79149;SDS011;68563;45.644;13.782;2023-08-24T08:03:24;11.60;;;6.95;;
79149;SDS011;68563;45.644;13.782;2023-08-24T08:05:49;10.48;;;6.35;;
79149;SDS011;68563;45.644;13.782;2023-08-24T08:08:15;10.98;;;6.60;;
79149;SDS011;68563;45.644;13.782;2023-08-24T08:10:41;11.90;;;6.80;;
79149;SDS011;68563;45.644;13.782;2023-08-24T08:13:07;13.23;;;7.10;;
79149;SDS011;68563;45.644;13.782;2023-08-24T08:15:33;14.50;;;6.68;;
79149;SDS011;68563;45.644;13.782;2023-08-24T08:17:59;17.52;;;6.90;;
79149;SDS011;68563;45.644;13.782;2023-08-24T08:20:24;11.50;;;5.97;;
79149;SDS011;68563;45.644;13.782;2023-08-24T08:22:50;11.30;;;7.88;;
79149;SDS011;68563;45.644;13.782;2023-08-24T08:25:15;22.75;;;8.68;;
79149;SDS011;68563;45.644;13.782;2023-08-24T08:27:45;19.52;;;7.22;;
79149;SDS011;68563;45.644;13.782;2023-08-24T08:30:11;15.82;;;7.10;;
79149;SDS011;68563;45.644;13.782;2023-08-24T08:32:37;15.35;;;6.63;;
79149;SDS011;68563;45.644;13.782;2023-08-24T08:35:02;10.57;;;6.68;;
79149;SDS011;68563;45.644;13.782;2023-08-24T08:37:30;19.42;;;7.07;;
79149;SDS011;68563;45.644;13.782;2023-08-24T08:39:57;11.85;;;7.22;;
79149;SDS011;68563;45.644;13.782;2023-08-24T08:42:22;15.05;;;7.38;;
79149;SDS011;68563;45.644;13.782;2023-08-24T08:44:47;14.50;;;6.53;;
79149;SDS011;68563;45.644;13.782;2023-08-24T08:47:14;10.85;;;7.57;;
79149;SDS011;68563;45.644;13.782;2023-08-24T08:49:41;12.10;;;7.35;;
79149;SDS011;68563;45.644;13.782;2023-08-24T08:52:08;14.30;;;7.55;;
79149;SDS011;68563;45.644;13.782;2023-08-24T08:54:34;17.42;;;7.55;;
79149;SDS011;68563;45.644;13.782;2023-08-24T08:56:59;16.27;;;7.53;;
79149;SDS011;68563;45.644;13.782;2023-08-24T08:59:27;13.95;;;7.20;;
79149;SDS011;68563;45.644;13.782;2023-08-24T09:02:00;11.95;;;6.75;;
79149;SDS011;68563;45.644;13.782;2023-08-24T09:04:27;13.30;;;7.13;;
79149;SDS011;68563;45.644;13.782;2023-08-24T09:06:54;10.18;;;6.85;;
79149;SDS011;68563;45.644;13.782;2023-08-24T09:09:21;9.60;;;6.40;;
79149;SDS011;68563;45.644;13.782;2023-08-24T09:11:47;13.82;;;6.35;;
79149;SDS011;68563;45.644;13.782;2023-08-24T09:14:14;19.35;;;7.45;;
79149;SDS011;68563;45.644;13.782;2023-08-24T09:16:40;12.32;;;6.75;;
79149;SDS011;68563;45.644;13.782;2023-08-24T09:19:06;14.93;;;7.15;;
79149;SDS011;68563;45.644;13.782;2023-08-24T09:21:36;9.95;;;6.78;;
79149;SDS011;68563;45.644;13.782;2023-08-24T09:24:06;14.85;;;6.65;;
79149;SDS011;68563;45.644;13.782;2023-08-24T09:26:36;14.93;;;6.65;;
79149;SDS011;68563;45.644;13.782;2023-08-24T09:29:11;16.85;;;5.75;;
79149;SDS011;68563;45.644;13.782;2023-08-24T09:31:41;12.52;;;6.10;;
79149;SDS011;68563;45.644;13.782;2023-08-24T09:34:10;13.27;;;6.40;;
79149;SDS011;68563;45.644;13.782;2023-08-24T09:36:37;9.18;;;6.35;;
79149;SDS011;68563;45.644;13.782;2023-08-24T09:39:03;9.95;;;6.15;;
79149;SDS011;68563;45.644;13.782;2023-08-24T09:44:17;12.15;;;6.90;;
79149;SDS011;68563;45.644;13.782;2023-08-24T09:46:43;8.13;;;6.40;;
79149;SDS011;68563;45.644;13.782;2023-08-24T09:49:11;8.85;;;6.40;;
79149;SDS011;68563;45.644;13.782;2023-08-24T09:51:38;9.35;;;6.57;;
79149;SDS011;68563;45.644;13.782;2023-08-24T09:54:06;15.05;;;7.22;;
79149;SDS011;68563;45.644;13.782;2023-08-24T09:56:36;10.82;;;7.10;;
79149;SDS011;68563;45.644;13.782;2023-08-24T09:59:13;9.02;;;6.43;;
79149;SDS011;68563;45.644;13.782;2023-08-24T10:01:43;11.65;;;6.90;;
79149;SDS011;68563;45.644;13.782;2023-08-24T10:04:10;9.02;;;7.03;;
79149;SDS011;68563;45.644;13.782;2023-08-24T10:06:38;11.70;;;7.20;;
79149;SDS011;68563;45.644;13.782;2023-08-24T10:09:06;8.80;;;6.80;;
79149;SDS011;68563;45.644;13.782;2023-08-24T10:16:38;9.48;;;6.43;;
79149;SDS011;68563;45.644;13.782;2023-08-24T10:19:06;8.18;;;6.85;;
79149;SDS011;68563;45.644;13.782;2023-08-24T10:21:32;9.50;;;6.22;;
79149;SDS011;68563;45.644;13.782;2023-08-24T10:23:58;8.73;;;6.38;;
79149;SDS011;68563;45.644;13.782;2023-08-24T10:26:26;9.88;;;6.57;;
79149;SDS011;68563;45.644;13.782;2023-08-24T10:28:52;7.35;;;6.35;;
79149;SDS011;68563;45.644;13.782;2023-08-24T10:31:18;8.20;;;7.47;;
79149;SDS011;68563;45.644;13.782;2023-08-24T10:33:45;10.15;;;7.13;;
79149;SDS011;68563;45.644;13.782;2023-08-24T10:36:15;9.70;;;7.75;;
79149;SDS011;68563;45.644;13.782;2023-08-24T10:38:42;11.30;;;6.63;;
79149;SDS011;68563;45.644;13.782;2023-08-24T10:41:07;8.10;;;5.72;;
79149;SDS011;68563;45.644;13.782;2023-08-24T10:43:48;8.57;;;6.07;;
79149;SDS011;68563;45.644;13.782;2023-08-24T10:46:14;12.07;;;6.53;;
79149;SDS011;68563;45.644;13.782;2023-08-24T10:53:42;9.30;;;6.47;;
79149;SDS011;68563;45.644;13.782;2023-08-24T10:56:17;8.82;;;5.95;;
79149;SDS011;68563;45.644;13.782;2023-08-24T10:58:46;15.73;;;6.43;;
79149;SDS011;68563;45.644;13.782;2023-08-24T11:01:16;8.80;;;5.55;;
79149;SDS011;68563;45.644;13.782;2023-08-24T11:03:50;9.68;;;5.82;;
79149;SDS011;68563;45.644;13.782;2023-08-24T11:06:22;11.48;;;5.60;;
79149;SDS011;68563;45.644;13.782;2023-08-24T11:08:49;7.25;;;5.60;;
79149;SDS011;68563;45.644;13.782;2023-08-24T11:11:30;10.60;;;6.10;;
79149;SDS011;68563;45.644;13.782;2023-08-24T11:14:14;10.77;;;6.63;;
79149;SDS011;68563;45.644;13.782;2023-08-24T11:16:42;9.15;;;6.28;;
79149;SDS011;68563;45.644;13.782;2023-08-24T11:19:10;8.60;;;5.40;;
79149;SDS011;68563;45.644;13.782;2023-08-24T11:21:37;12.40;;;5.93;;
79149;SDS011;68563;45.644;13.782;2023-08-24T11:24:04;7.45;;;5.78;;
79149;SDS011;68563;45.644;13.782;2023-08-24T11:26:30;6.88;;;6.20;;
79149;SDS011;68563;45.644;13.782;2023-08-24T11:28:56;6.10;;;5.43;;
79149;SDS011;68563;45.644;13.782;2023-08-24T11:31:23;11.43;;;5.75;;
79149;SDS011;68563;45.644;13.782;2023-08-24T11:33:54;9.50;;;6.28;;
79149;SDS011;68563;45.644;13.782;2023-08-24T11:36:20;7.38;;;5.45;;
79149;SDS011;68563;45.644;13.782;2023-08-24T11:38:46;8.13;;;5.85;;
79149;SDS011;68563;45.644;13.782;2023-08-24T11:41:16;8.07;;;5.68;;
79149;SDS011;68563;45.644;13.782;2023-08-24T11:43:42;11.10;;;6.22;;
79149;SDS011;68563;45.644;13.782;2023-08-24T11:46:09;8.23;;;6.93;;
79149;SDS011;68563;45.644;13.782;2023-08-24T11:48:34;6.68;;;5.82;;
79149;SDS011;68563;45.644;13.782;2023-08-24T11:51:01;8.48;;;5.50;;
79149;SDS011;68563;45.644;13.782;2023-08-24T11:53:28;13.05;;;6.18;;
79149;SDS011;68563;45.644;13.782;2023-08-24T11:55:54;7.70;;;6.15;;
79149;SDS011;68563;45.644;13.782;2023-08-24T11:58:19;7.32;;;5.70;;
79149;SDS011;68563;45.644;13.782;2023-08-24T12:00:45;5.70;;;5.20;;
79149;SDS011;68563;45.644;13.782;2023-08-24T12:03:12;8.75;;;5.90;;
79149;SDS011;68563;45.644;13.782;2023-08-24T12:05:38;5.82;;;5.00;;
79149;SDS011;68563;45.644;13.782;2023-08-24T12:08:04;5.97;;;5.35;;
79149;SDS011;68563;45.644;13.782;2023-08-24T12:10:30;6.95;;;5.03;;
79149;SDS011;68563;45.644;13.782;2023-08-24T12:13:05;6.35;;;5.75;;
79149;SDS011;68563;45.644;13.782;2023-08-24T12:15:35;9.77;;;5.57;;
79149;SDS011;68563;45.644;13.782;2023-08-24T12:18:08;10.45;;;5.22;;
79149;SDS011;68563;45.644;13.782;2023-08-24T12:20:35;17.13;;;5.57;;
79149;SDS011;68563;45.644;13.782;2023-08-24T12:23:00;7.18;;;5.43;;
79149;SDS011;68563;45.644;13.782;2023-08-24T12:25:26;7.93;;;6.20;;
79149;SDS011;68563;45.644;13.782;2023-08-24T12:27:52;12.73;;;5.65;;
79149;SDS011;68563;45.644;13.782;2023-08-24T12:30:33;8.63;;;5.25;;
79149;SDS011;68563;45.644;13.782;2023-08-24T12:33:08;14.05;;;5.95;;
79149;SDS011;68563;45.644;13.782;2023-08-24T12:35:33;6.45;;;5.07;;
79149;SDS011;68563;45.644;13.782;2023-08-24T12:37:59;9.07;;;4.97;;
79149;SDS011;68563;45.644;13.782;2023-08-24T12:40:24;12.05;;;6.00;;
79149;SDS011;68563;45.644;13.782;2023-08-24T12:42:50;11.32;;;5.50;;
79149;SDS011;68563;45.644;13.782;2023-08-24T12:45:15;18.05;;;5.80;;
79149;SDS011;68563;45.644;13.782;2023-08-24T12:47:41;9.30;;;4.97;;
79149;SDS011;68563;45.644;13.782;2023-08-24T12:50:06;6.13;;;5.25;;
79149;SDS011;68563;45.644;13.782;2023-08-24T12:52:32;7.35;;;5.80;;
79149;SDS011;68563;45.644;13.782;2023-08-24T12:54:57;8.98;;;4.82;;
79149;SDS011;68563;45.644;13.782;2023-08-24T12:57:23;7.07;;;5.18;;
79149;SDS011;68563;45.644;13.782;2023-08-24T12:59:49;8.45;;;5.25;;
79149;SDS011;68563;45.644;13.782;2023-08-24T13:02:16;7.13;;;5.68;;
79149;SDS011;68563;45.644;13.782;2023-08-24T13:04:42;9.80;;;4.80;;
79149;SDS011;68563;45.644;13.782;2023-08-24T13:07:07;5.88;;;5.20;;
79149;SDS011;68563;45.644;13.782;2023-08-24T13:09:34;7.40;;;5.13;;
79149;SDS011;68563;45.644;13.782;2023-08-24T13:11:59;8.75;;;5.03;;
79149;SDS011;68563;45.644;13.782;2023-08-24T13:14:25;14.85;;;5.38;;
79149;SDS011;68563;45.644;13.782;2023-08-24T13:16:50;13.02;;;5.50;;
79149;SDS011;68563;45.644;13.782;2023-08-24T13:19:15;15.68;;;6.28;;
79149;SDS011;68563;45.644;13.782;2023-08-24T13:21:41;12.45;;;5.40;;
79149;SDS011;68563;45.644;13.782;2023-08-24T13:24:06;8.02;;;5.40;;
79149;SDS011;68563;45.644;13.782;2023-08-24T13:26:32;7.55;;;5.35;;
79149;SDS011;68563;45.644;13.782;2023-08-24T13:28:57;6.15;;;5.55;;
79149;SDS011;68563;45.644;13.782;2023-08-24T13:31:23;8.02;;;5.57;;
79149;SDS011;68563;45.644;13.782;2023-08-24T13:33:48;10.40;;;5.80;;
79149;SDS011;68563;45.644;13.782;2023-08-24T13:36:13;9.18;;;5.97;;
79149;SDS011;68563;45.644;13.782;2023-08-24T13:38:39;8.00;;;5.80;;
79149;SDS011;68563;45.644;13.782;2023-08-24T13:41:04;11.77;;;6.80;;
79149;SDS011;68563;45.644;13.782;2023-08-24T13:43:31;17.35;;;7.03;;
79149;SDS011;68563;45.644;13.782;2023-08-24T13:45:56;9.20;;;5.60;;
79149;SDS011;68563;45.644;13.782;2023-08-24T13:48:22;9.73;;;5.55;;
79149;SDS011;68563;45.644;13.782;2023-08-24T13:50:49;13.77;;;5.93;;
79149;SDS011;68563;45.644;13.782;2023-08-24T13:53:16;13.35;;;6.75;;
79149;SDS011;68563;45.644;13.782;2023-08-24T13:55:41;8.65;;;5.82;;
79149;SDS011;68563;45.644;13.782;2023-08-24T13:58:08;15.15;;;6.20;;
79149;SDS011;68563;45.644;13.782;2023-08-24T14:00:33;12.90;;;6.13;;
79149;SDS011;68563;45.644;13.782;2023-08-24T14:02:59;13.90;;;6.18;;
79149;SDS011;68563;45.644;13.782;2023-08-24T14:05:24;8.38;;;5.43;;
79149;SDS011;68563;45.644;13.782;2023-08-24T14:07:50;7.07;;;6.38;;
79149;SDS011;68563;45.644;13.782;2023-08-24T14:10:16;7.50;;;6.25;;
79149;SDS011;68563;45.644;13.782;2023-08-24T14:12:41;6.93;;;5.85;;
79149;SDS011;68563;45.644;13.782;2023-08-24T14:15:06;8.57;;;5.82;;
79149;SDS011;68563;45.644;13.782;2023-08-24T14:17:32;7.95;;;6.45;;
79149;SDS011;68563;45.644;13.782;2023-08-24T14:19:58;7.50;;;6.40;;
79149;SDS011;68563;45.644;13.782;2023-08-24T14:22:24;9.75;;;6.43;;
79149;SDS011;68563;45.644;13.782;2023-08-24T14:24:50;7.20;;;6.43;;
79149;SDS011;68563;45.644;13.782;2023-08-24T14:27:15;6.70;;;6.07;;
79149;SDS011;68563;45.644;13.782;2023-08-24T14:29:41;7.70;;;5.88;;
79149;SDS011;68563;45.644;13.782;2023-08-24T14:32:06;7.25;;;6.18;;
79149;SDS011;68563;45.644;13.782;2023-08-24T14:34:31;7.85;;;6.03;;
79149;SDS011;68563;45.644;13.782;2023-08-24T14:36:57;7.55;;;5.97;;
79149;SDS011;68563;45.644;13.782;2023-08-24T14:39:22;7.38;;;5.78;;
79149;SDS011;68563;45.644;13.782;2023-08-24T14:41:47;7.35;;;6.65;;
79149;SDS011;68563;45.644;13.782;2023-08-24T14:44:13;9.75;;;7.65;;